Maxwell Air Force Base Montgomery US
ICAO: KMXF
IATA: MXF
Category: Medium
Scheduled Services: No

Elevation: 171 ft
TransAlt. 18000 ft.

Airport Communications:
MONTGOMERY APP/DEP:121.2
ATIS:134.7
GND:127.15
PMSV METRO:34.23
42 ABW COMD POST:23.46
AFRC 908AW COMD POST:39.69
PTD:122.85
TWR:118.15

KMXF Zoom In..

Runways:

(A) RW 15 length 8013 ft width 150 ft
ILS 109.30 / hdg 149

(B) RW 33 length 8013 ft width 150 ft
---- / hdg 329

Location; KMXF
Day. 21 / Time. 13.56 Zulu
* Altimeter: 30.09
* Temperature: 24° c. 75.2°f.
* Wind from: 090° Speed 09 kn with Gusts up to 14 kn.
Dewpoint: 19° c.
Visibility: 10 Statute Miles.
Clouds: Few 3400 ft.
Clouds: Scattered 12000 ft.

KMXF 211356Z AUTO 09009G14KT 10SM FEW034 SCT120 24/19 A3009 RMK AO2 SLP191 T02440185 $


Wind From 090°
Speed 09 kn.

 
 
jpsmedia.com for Web Design SOUNDCLOUD worldairports.se 2018   terms of use